Observation data for Graham on 08/13/2019      Previous  Date       Current Mesonet Observations  Soil Data  Daily Summary Page  Observations in Plain Language
KGHS 130500Z 15011G16KT 32/14 A299 RMK A01 T03190135  RH  034%=      5-min Rain = 0
KGHS 130505Z 15011G17KT 32/14 A299 RMK A01 T03180135  RH  034%=      5-min Rain = 0
KGHS 130510Z 15013G18KT 32/13 A2989 RMK A01 T03180134  RH  034%=      5-min Rain = 0
KGHS 130515Z 15014KT 32/13 A2989 RMK A01 T03170134  RH  034%=      5-min Rain = 0
KGHS 130520Z 15013G19KT 32/13 A2989 RMK A01 T03170134  RH  034%=      5-min Rain = 0
KGHS 130525Z 15012G18KT 32/13 A2989 RMK A01 T03160134  RH  034%=      5-min Rain = 0
KGHS 130530Z 14010G15KT 31/13 A299 RMK A01 T03140134  RH  035%=      5-min Rain = 0
KGHS 130535Z 14010G15KT 31/13 A299 RMK A01 T03120134  RH  035%=      5-min Rain = 0
KGHS 130540Z 15011KT 31/14 A299 RMK A01 T03110135  RH  036%=      5-min Rain = 0
KGHS 130545Z 15010KT 31/14 A299 RMK A01 T03100135  RH  036%=      5-min Rain = 0
KGHS 130550Z 14009KT 31/14 A299 RMK A01 T03090135  RH  036%=      5-min Rain = 0
KGHS 130555Z 14010KT 31/14 A299 RMK A01 T03080135  RH  036%=      5-min Rain = 0
KGHS 130600Z 14009KT 31/14 A299 RMK A01 T03060135  RH  037%=      5-min Rain = 0
KGHS 130605Z 14009KT 31/14 A299 RMK A01 T03050136  RH  037%=      5-min Rain = 0
KGHS 130610Z 15010KT 30/14 A299 RMK A01 T03040136  RH  037%=      5-min Rain = 0
KGHS 130615Z 15011KT 31/14 A299 RMK A01 T03050136  RH  037%=      5-min Rain = 0
KGHS 130620Z 14010KT 31/14 A299 RMK A01 T03050136  RH  037%=      5-min Rain = 0
KGHS 130625Z 15011KT 30/14 A299 RMK A01 T03040136  RH  038%=      5-min Rain = 0
KGHS 130630Z 15010G15KT 30/14 A299 RMK A01 T03040137  RH  038%=      5-min Rain = 0
KGHS 130635Z 15010KT 30/14 A2989 RMK A01 T03020137  RH  038%=      5-min Rain = 0
KGHS 130640Z 15011KT 30/14 A2989 RMK A01 T03010137  RH  038%=      5-min Rain = 0
KGHS 130645Z 15011KT 30/14 A2989 RMK A01 T03010137  RH  038%=      5-min Rain = 0
KGHS 130650Z 15012KT 30/14 A2989 RMK A01 T03010137  RH  038%=      5-min Rain = 0
KGHS 130655Z 15012G17KT 30/14 A2989 RMK A01 T03000137  RH  039%=      5-min Rain = 0
KGHS 130700Z 16013G18KT 30/14 A2989 RMK A01 T03000138  RH  039%=      5-min Rain = 0
KGHS 130705Z 16015KT 30/14 A2989 RMK A01 T03000138  RH  039%=      5-min Rain = 0
KGHS 130710Z 16015KT 30/14 A2989 RMK A01 T03000138  RH  039%=      5-min Rain = 0
KGHS 130715Z 17015G20KT 30/14 A2989 RMK A01 T02990139  RH  039%=      5-min Rain = 0
KGHS 130720Z 17016G22KT 30/14 A2989 RMK A01 T02990139  RH  039%=      5-min Rain = 0
KGHS 130725Z 17018G25KT 30/14 A2989 RMK A01 T03000138  RH  039%=      5-min Rain = 0
KGHS 130730Z 17018G23KT 30/14 A2989 RMK A01 T03000138  RH  039%=      5-min Rain = 0
KGHS 130735Z 17018G23KT 30/14 A2989 RMK A01 T02990138  RH  039%=      5-min Rain = 0
KGHS 130740Z 17014G21KT 30/14 A2989 RMK A01 T03000137  RH  039%=      5-min Rain = 0
KGHS 130745Z 17013G18KT 30/14 A299 RMK A01 T02990137  RH  039%=      5-min Rain = 0
KGHS 130750Z 17012G18KT 30/14 A299 RMK A01 T02980137  RH  039%=      5-min Rain = 0
KGHS 130755Z 18009KT 30/14 A299 RMK A01 T02970137  RH  039%=      5-min Rain = 0
KGHS 130800Z 19008G13KT 30/14 A2991 RMK A01 T02970136  RH  039%=      5-min Rain = 0
KGHS 130805Z 20008KT 30/13 A2991 RMK A01 T02960134  RH  039%=      5-min Rain = 0
KGHS 130810Z 21006KT 30/13 A2991 RMK A01 T02950133  RH  039%=      5-min Rain = 0
KGHS 130815Z 21006G11KT 29/13 A2992 RMK A01 T02910130  RH  038%=      5-min Rain = 0
KGHS 130820Z 20007KT 29/13 A2991 RMK A01 T02880125  RH  038%=      5-min Rain = 0
KGHS 130825Z 19008KT 29/12 A2991 RMK A01 T02870121  RH  037%=      5-min Rain = 0
KGHS 130830Z 19010G16KT 29/12 A2991 RMK A01 T02870117  RH  036%=      5-min Rain = 0
KGHS 130835Z 20013KT 29/12 A2991 RMK A01 T02910116  RH  035%=      5-min Rain = 0
KGHS 130840Z 21010G15KT 29/12 A2991 RMK A01 T02920117  RH  035%=      5-min Rain = 0
KGHS 130845Z 24010G15KT 29/12 A2992 RMK A01 T02880118  RH  036%=      5-min Rain = 0
KGHS 130850Z 25011G16KT 28/12 A2992 RMK A01 T02780119  RH  039%=      5-min Rain = 0
KGHS 130855Z 26011KT 27/12 A2992 RMK A01 T02710124  RH  042%=      5-min Rain = 0
KGHS 130900Z 26009KT 27/13 A2993 RMK A01 T02660129  RH  045%=      5-min Rain = 0
KGHS 130905Z 26009KT 26/13 A2993 RMK A01 T02630134  RH  047%=      5-min Rain = 0
KGHS 130910Z 27008KT 26/14 A2993 RMK A01 T02600138  RH  049%=      5-min Rain = 0
KGHS 130915Z 29009KT 26/14 A2993 RMK A01 T02570138  RH  050%=      5-min Rain = 0
KGHS 130920Z 29008KT 25/14 A2993 RMK A01 T02540140  RH  051%=      5-min Rain = 0
KGHS 130925Z 28008KT 25/14 A2993 RMK A01 T02520143  RH  053%=      5-min Rain = 0
KGHS 130930Z 27007KT 25/15 A2993 RMK A01 T02510145  RH  054%=      5-min Rain = 0
KGHS 130935Z 28006KT 25/15 A2993 RMK A01 T02500145  RH  054%=      5-min Rain = 0
KGHS 130940Z 29005KT 25/15 A2994 RMK A01 T02490145  RH  055%=      5-min Rain = 0
KGHS 130945Z 29004KT 25/15 A2994 RMK A01 T02470145  RH  055%=      5-min Rain = 0
KGHS 130950Z 30004KT 25/15 A2994 RMK A01 T02460146  RH  056%=      5-min Rain = 0
KGHS 130955Z 33004KT 24/15 A2994 RMK A01 T02440145  RH  056%=      5-min Rain = 0
KGHS 131000Z 33005KT 24/15 A2994 RMK A01 T02420145  RH  057%=      5-min Rain = 0
KGHS 131005Z 32004KT 24/14 A2994 RMK A01 T02390144  RH  057%=      5-min Rain = 0
KGHS 131010Z 32003KT 24/14 A2995 RMK A01 T02390142  RH  057%=      5-min Rain = 0
KGHS 131015Z 34003KT 24/14 A2995 RMK A01 T02390142  RH  057%=      5-min Rain = 0
KGHS 131020Z 35004KT 24/14 A2995 RMK A01 T02390141  RH  057%=      5-min Rain = 0
KGHS 131025Z 36004KT 24/14 A2995 RMK A01 T02370139  RH  057%=      5-min Rain = 0
KGHS 131030Z 02005KT 24/14 A2995 RMK A01 T02350135  RH  056%=      5-min Rain = 0
KGHS 131035Z 01005KT 24/14 A2995 RMK A01 T02360135  RH  055%=      5-min Rain = 0
KGHS 131040Z 02004KT 24/13 A2995 RMK A01 T02360134  RH  055%=      5-min Rain = 0
KGHS 131045Z 03005KT 24/14 A2996 RMK A01 T02350135  RH  056%=      5-min Rain = 0
KGHS 131050Z 04006KT 24/15 A2996 RMK A01 T02350148  RH  061%=      5-min Rain = 0
KGHS 131055Z 03007G12KT 24/16 A2996 RMK A01 T02350161  RH  066%=      5-min Rain = 0
KGHS 131100Z 04010KT 23/17 A2996 RMK A01 T02340168  RH  070%=      5-min Rain = 0
KGHS 131105Z 04013KT 23/17 A2996 RMK A01 T02330171  RH  071%=      5-min Rain = 0
KGHS 131110Z 04011KT 23/17 A2996 RMK A01 T02320172  RH  072%=      5-min Rain = 0
KGHS 131115Z 05010KT 23/17 A2996 RMK A01 T02310173  RH  073%=      5-min Rain = 0
KGHS 131120Z 04011KT 23/17 A2996 RMK A01 T02300174  RH  074%=      5-min Rain = 0
KGHS 131125Z 05011KT 23/18 A2996 RMK A01 T02290175  RH  075%=      5-min Rain = 0
KGHS 131130Z 04012KT 23/18 A2997 RMK A01 T02290176  RH  076%=      5-min Rain = 0
KGHS 131135Z 04012KT 23/18 A2997 RMK A01 T02270176  RH  077%=      5-min Rain = 0
KGHS 131140Z 04014G19KT 23/18 A2997 RMK A01 T02260177  RH  078%=      5-min Rain = 0
KGHS 131145Z 04015KT 22/18 A2997 RMK A01 T02240177  RH  079%=      5-min Rain = 0
KGHS 131150Z 04014KT 22/18 A2998 RMK A01 T02230178  RH  080%=      5-min Rain = 0
KGHS 131155Z 04014KT 22/18 A2998 RMK A01 T02220178  RH  080%=      5-min Rain = 0
KGHS 131200Z 04012G17KT 22/18 A2998 RMK A01 T02210178  RH  081%=      5-min Rain = 0
KGHS 131205Z 04013G19KT 22/18 A2998 RMK A01 T02200179  RH  082%=      5-min Rain = 0
KGHS 131210Z 04014KT 22/18 A2998 RMK A01 T02190179  RH  082%=      5-min Rain = 0
KGHS 131215Z 04012KT 22/18 A2998 RMK A01 T02190179  RH  082%=      5-min Rain = 0
KGHS 131220Z 04013KT 22/18 A2999 RMK A01 T02180179  RH  083%=      5-min Rain = 0
KGHS 131225Z 05011KT 22/18 A2998 RMK A01 T02180179  RH  083%=      5-min Rain = 0
KGHS 131230Z 05011G16KT 22/18 A2999 RMK A01 T02190180  RH  083%=      5-min Rain = 0
KGHS 131235Z 05011KT 22/18 A2999 RMK A01 T02190180  RH  083%=      5-min Rain = 0
KGHS 131240Z 06010KT 22/18 A2999 RMK A01 T02200180  RH  082%=      5-min Rain = 0
KGHS 131245Z 05013KT 22/18 A2999 RMK A01 T02200180  RH  082%=      5-min Rain = 0
KGHS 131250Z 05013KT 22/18 A2999 RMK A01 T02210181  RH  082%=      5-min Rain = 0
KGHS 131255Z 05011KT 22/18 A2999 RMK A01 T02220181  RH  082%=      5-min Rain = 0
KGHS 131300Z 05012KT 22/18 A30 RMK A01 T02230181  RH  081%=      5-min Rain = 0
KGHS 131305Z 05013KT 22/18 A30 RMK A01 T02240181  RH  081%=      5-min Rain = 0
KGHS 131310Z 05012KT 22/18 A30 RMK A01 T02240181  RH  081%=      5-min Rain = 0
KGHS 131315Z 06011KT 23/18 A30 RMK A01 T02250182  RH  081%=      5-min Rain = 0
KGHS 131320Z 06012KT 23/18 A30 RMK A01 T02270182  RH  080%=      5-min Rain = 0
KGHS 131325Z 06012G17KT 23/18 A3001 RMK A01 T02280182  RH  079%=      5-min Rain = 0
KGHS 131330Z 06011KT 23/18 A3001 RMK A01 T02290182  RH  079%=      5-min Rain = 0
KGHS 131335Z 05012KT 23/18 A3001 RMK A01 T02310182  RH  078%=      5-min Rain = 0
KGHS 131340Z 06012KT 23/18 A3001 RMK A01 T02310182  RH  077%=      5-min Rain = 0
KGHS 131345Z 06011KT 23/18 A3001 RMK A01 T02330182  RH  077%=      5-min Rain = 0
KGHS 131350Z 05012G18KT 23/18 A3001 RMK A01 T02340182  RH  076%=      5-min Rain = 0
KGHS 131355Z 06012G17KT 24/18 A3001 RMK A01 T02360182  RH  076%=      5-min Rain = 0
KGHS 131400Z 05012G17KT 24/18 A3002 RMK A01 T02370182  RH  075%=      5-min Rain = 0
KGHS 131405Z 05012KT 24/18 A3002 RMK A01 T02390182  RH  074%=      5-min Rain = 0
KGHS 131410Z 06012KT 24/18 A3002 RMK A01 T02410182  RH  073%=      5-min Rain = 0
KGHS 131415Z 06011KT 24/18 A3002 RMK A01 T02420182  RH  073%=      5-min Rain = 0
KGHS 131420Z 04013KT 24/18 A3002 RMK A01 T02430182  RH  072%=      5-min Rain = 0
KGHS 131425Z 05013G18KT 24/18 A3002 RMK A01 T02440182  RH  072%=      5-min Rain = 0
KGHS 131430Z 05011G16KT 25/18 A3003 RMK A01 T02460183  RH  071%=      5-min Rain = 0
KGHS 131435Z 04013KT 25/18 A3002 RMK A01 T02480182  RH  071%=      5-min Rain = 0
KGHS 131440Z 05012KT 25/18 A3003 RMK A01 T02490182  RH  070%=      5-min Rain = 0
KGHS 131445Z 05011G16KT 25/18 A3003 RMK A01 T02510183  RH  069%=      5-min Rain = 0
KGHS 131450Z 06010KT 25/18 A3003 RMK A01 T02540183  RH  068%=      5-min Rain = 0
KGHS 131455Z 05012KT 26/18 A3003 RMK A01 T02580183  RH  067%=      5-min Rain = 0
KGHS 131500Z 05012KT 26/18 A3003 RMK A01 T02580182  RH  067%=      5-min Rain = 0
KGHS 131505Z 03013KT 26/18 A3003 RMK A01 T02590183  RH  066%=      5-min Rain = 0
KGHS 131510Z 04013G19KT 26/18 A3003 RMK A01 T02580182  RH  067%=      5-min Rain = 0
KGHS 131515Z 05012KT 26/18 A3004 RMK A01 T02590183  RH  066%=      5-min Rain = 0
KGHS 131520Z 04011G16KT 26/18 A3004 RMK A01 T02600183  RH  066%=      5-min Rain = 0
KGHS 131525Z 05012KT 26/18 A3004 RMK A01 T02630183  RH  065%=      5-min Rain = 0
KGHS 131530Z 06011G16KT 27/18 A3004 RMK A01 T02650183  RH  064%=      5-min Rain = 0
KGHS 131535Z 05011G19KT 27/18 A3004 RMK A01 T02650183  RH  064%=      5-min Rain = 0
KGHS 131540Z 05011KT 27/18 A3004 RMK A01 T02710183  RH  062%=      5-min Rain = 0
KGHS 131545Z 05011G16KT 27/18 A3004 RMK A01 T02710182  RH  061%=      5-min Rain = 0
KGHS 131550Z 05011KT 27/18 A3004 RMK A01 T02710182  RH  062%=      5-min Rain = 0
KGHS 131555Z 05011KT 27/18 A3004 RMK A01 T02730182  RH  060%=      5-min Rain = 0
KGHS 131600Z 05011G16KT 28/18 A3004 RMK A01 T02760181  RH  059%=      5-min Rain = 0
KGHS 131605Z 05011KT 28/18 A3005 RMK A01 T02770182  RH  059%=      5-min Rain = 0
KGHS 131610Z 05012KT 28/18 A3005 RMK A01 T02790182  RH  059%=      5-min Rain = 0
KGHS 131615Z 05011KT 28/18 A3005 RMK A01 T02830180  RH  057%=      5-min Rain = 0
KGHS 131620Z 06011G16KT 28/18 A3005 RMK A01 T02840181  RH  057%=      5-min Rain = 0
KGHS 131625Z 05010KT 29/18 A3005 RMK A01 T02870181  RH  056%=      5-min Rain = 0
KGHS 131630Z 07010KT 29/18 A3005 RMK A01 T02890179  RH  054%=      5-min Rain = 0
KGHS 131635Z 05011G17KT 29/18 A3005 RMK A01 T02910179  RH  054%=      5-min Rain = 0
KGHS 131640Z 04010KT 29/18 A3005 RMK A01 T02940180  RH  053%=      5-min Rain = 0
KGHS 131645Z 04010G16KT 30/18 A3005 RMK A01 T02970179  RH  052%=      5-min Rain = 0
KGHS 131650Z 05011KT 30/18 A3005 RMK A01 T02960178  RH  052%=      5-min Rain = 0
KGHS 131655Z 07010G15KT 30/18 A3005 RMK A01 T02950176  RH  051%=      5-min Rain = 0
KGHS 131700Z 06010G15KT 30/18 A3005 RMK A01 T02980176  RH  050%=      5-min Rain = 0
KGHS 131705Z 07012G19KT 30/18 A3005 RMK A01 T02990177  RH  051%=      5-min Rain = 0
KGHS 131710Z 04014KT 30/18 A3005 RMK A01 T02990175  RH  050%=      5-min Rain = 0
KGHS 131715Z 04011KT 30/17 A3005 RMK A01 T02990174  RH  049%=      5-min Rain = 0
KGHS 131720Z 04011KT 30/18 A3005 RMK A01 T03030177  RH  049%=      5-min Rain = 0
KGHS 131725Z 04010G16KT 31/18 A3005 RMK A01 T03050176  RH  048%=      5-min Rain = 0
KGHS 131730Z 05010G15KT 31/18 A3005 RMK A01 T03070176  RH  048%=      5-min Rain = 0
KGHS 131735Z 06011G16KT 31/18 A3005 RMK A01 T03080175  RH  047%=      5-min Rain = 0
KGHS 131740Z 03009G14KT 31/17 A3005 RMK A01 T03100172  RH  046%=      5-min Rain = 0
KGHS 131745Z 04012G20KT 31/17 A3005 RMK A01 T03100171  RH  046%=      5-min Rain = 0
KGHS 131750Z 07010KT 31/17 A3005 RMK A01 T03100172  RH  046%=      5-min Rain = 0
KGHS 131755Z 05012G20KT 31/17 A3005 RMK A01 T03140170  RH  044%=      5-min Rain = 0
KGHS 131800Z 05012G19KT 32/17 A3005 RMK A01 T03170169  RH  043%=      5-min Rain = 0
KGHS 131805Z 04016G22KT 32/17 A3005 RMK A01 T03190168  RH  042%=      5-min Rain = 0
KGHS 131810Z 04015G21KT 32/17 A3005 RMK A01 T03180168  RH  043%=      5-min Rain = 0
KGHS 131815Z 05014KT 32/17 A3005 RMK A01 T03200168  RH  042%=      5-min Rain = 0
KGHS 131820Z 05015G21KT 32/17 A3004 RMK A01 T03190167  RH  042%=      5-min Rain = 0
KGHS 131825Z 06013G19KT 32/17 A3004 RMK A01 T03200167  RH  042%=      5-min Rain = 0
KGHS 131830Z 03012G20KT 32/17 A3004 RMK A01 T03230167  RH  041%=      5-min Rain = 0
KGHS 131835Z 04015G22KT 33/17 A3004 RMK A01 T03250166  RH  041%=      5-min Rain = 0
KGHS 131840Z 05017G22KT 33/16 A3004 RMK A01 T03250164  RH  040%=      5-min Rain = 0
KGHS 131845Z 05015G21KT 33/16 A3004 RMK A01 T03260164  RH  040%=      5-min Rain = 0
KGHS 131850Z 04013KT 33/16 A3004 RMK A01 T03280164  RH  039%=      5-min Rain = 0
KGHS 131855Z 06014G21KT 33/16 A3004 RMK A01 T03310164  RH  039%=      5-min Rain = 0
KGHS 131900Z 04016G22KT 33/17 A3004 RMK A01 T03290165  RH  039%=      5-min Rain = 0
KGHS 131905Z 07014G19KT 33/16 A3004 RMK A01 T03290164  RH  039%=      5-min Rain = 0
KGHS 131910Z 05014G24KT 33/16 A3004 RMK A01 T03330161  RH  037%=      5-min Rain = 0
KGHS 131915Z 04017G24KT 33/16 A3003 RMK A01 T03320160  RH  038%=      5-min Rain = 0
KGHS 131920Z 04015KT 33/16 A3003 RMK A01 T03310160  RH  038%=      5-min Rain = 0
KGHS 131925Z 04015G20KT 33/16 A3003 RMK A01 T03330160  RH  037%=      5-min Rain = 0
KGHS 131930Z 04015G22KT 33/16 A3003 RMK A01 T03330161  RH  037%=      5-min Rain = 0
KGHS 131935Z 05015G20KT 34/16 A3003 RMK A01 T03350160  RH  037%=      5-min Rain = 0
KGHS 131940Z 08014G20KT 34/16 A3003 RMK A01 T03350160  RH  037%=      5-min Rain = 0
KGHS 131945Z 05011G21KT 34/16 A3003 RMK A01 T03370161  RH  037%=      5-min Rain = 0
KGHS 131950Z 05014G19KT 34/16 A3003 RMK A01 T03380161  RH  036%=      5-min Rain = 0
KGHS 131955Z 05015G22KT 34/16 A3003 RMK A01 T03390156  RH  035%=      5-min Rain = 0
KGHS 132000Z 07015G21KT 34/16 A3003 RMK A01 T03410156  RH  035%=      5-min Rain = 0
KGHS 132005Z 06013G18KT 34/16 A3003 RMK A01 T03430156  RH  034%=      5-min Rain = 0
KGHS 132010Z 05015G22KT 34/16 A3002 RMK A01 T03430157  RH  035%=      5-min Rain = 0
KGHS 132015Z 06015G23KT 34/16 A3002 RMK A01 T03440156  RH  034%=      5-min Rain = 0
KGHS 132020Z 05012KT 34/16 A3002 RMK A01 T03440157  RH  034%=      5-min Rain = 0
KGHS 132025Z 08015G24KT 34/16 A3002 RMK A01 T03440155  RH  034%=      5-min Rain = 0
KGHS 132030Z 06013G18KT 34/16 A3002 RMK A01 T03430155  RH  034%=      5-min Rain = 0
KGHS 132035Z 06015KT 35/16 A3002 RMK A01 T03460156  RH  034%=      5-min Rain = 0
KGHS 132040Z 06013G21KT 35/16 A3001 RMK A01 T03460156  RH  034%=      5-min Rain = 0
KGHS 132045Z 06012G19KT 35/16 A3001 RMK A01 T03460155  RH  033%=      5-min Rain = 0
KGHS 132050Z 05015G21KT 35/15 A3001 RMK A01 T03460154  RH  033%=      5-min Rain = 0
KGHS 132055Z 05011G16KT 35/16 A3001 RMK A01 T03450155  RH  034%=      5-min Rain = 0
KGHS 132100Z 05014G21KT 35/16 A3001 RMK A01 T03480155  RH  033%=      5-min Rain = 0
KGHS 132105Z 05011KT 35/15 A3001 RMK A01 T03490154  RH  033%=      5-min Rain = 0
KGHS 132110Z 06012G22KT 35/16 A3001 RMK A01 T03480155  RH  033%=      5-min Rain = 0
KGHS 132115Z 06011G17KT 35/16 A3001 RMK A01 T03480155  RH  033%=      5-min Rain = 0
KGHS 132120Z 06011G19KT 34/16 A3001 RMK A01 T03440156  RH  034%=      5-min Rain = 0
KGHS 132125Z 09014G24KT 35/15 A30 RMK A01 T03460154  RH  033%=      5-min Rain = 0
KGHS 132130Z 08013G20KT 34/15 A30 RMK A01 T03410154  RH  034%=      5-min Rain = 0
KGHS 132135Z 07010G19KT 35/15 A30 RMK A01 T03450153  RH  033%=      5-min Rain = 0
KGHS 132140Z 08012KT 35/15 A30 RMK A01 T03470153  RH  033%=      5-min Rain = 0
KGHS 132145Z 07015G22KT 35/16 A2999 RMK A01 T03460155  RH  033%=      5-min Rain = 0
KGHS 132150Z 06011KT 35/16 A30 RMK A01 T03450155  RH  034%=      5-min Rain = 0
KGHS 132155Z 07010G15KT 35/15 A30 RMK A01 T03470154  RH  033%=      5-min Rain = 0
KGHS 132200Z 06013G25KT 35/16 A2999 RMK A01 T03500156  RH  033%=      5-min Rain = 0
KGHS 132205Z 07013G19KT 35/16 A2998 RMK A01 T03500155  RH  033%=      5-min Rain = 0
KGHS 132210Z 08013G18KT 35/16 A2998 RMK A01 T03500155  RH  033%=      5-min Rain = 0
KGHS 132215Z 07013G20KT 35/16 A2998 RMK A01 T03510155  RH  033%=      5-min Rain = 0
KGHS 132220Z 05011KT 35/15 A2998 RMK A01 T03480153  RH  033%=      5-min Rain = 0
KGHS 132225Z 05013KT 35/15 A2998 RMK A01 T03500153  RH  032%=      5-min Rain = 0
KGHS 132230Z 08011G20KT 35/15 A2998 RMK A01 T03510154  RH  032%=      5-min Rain = 0
KGHS 132235Z 08011G19KT 35/15 A2998 RMK A01 T03520154  RH  032%=      5-min Rain = 0
KGHS 132240Z 06012G19KT 35/15 A2998 RMK A01 T03500153  RH  032%=      5-min Rain = 0
KGHS 132245Z 06011G19KT 35/15 A2998 RMK A01 T03450153  RH  033%=      5-min Rain = 0
KGHS 132250Z 05014KT 35/15 A2998 RMK A01 T03450153  RH  033%=      5-min Rain = 0
KGHS 132255Z 05013G19KT 35/15 A2998 RMK A01 T03460152  RH  033%=      5-min Rain = 0
KGHS 132300Z 05015KT 35/15 A2998 RMK A01 T03470150  RH  032%=      5-min Rain = 0
KGHS 132305Z 05011G16KT 35/15 A2998 RMK A01 T03470150  RH  032%=      5-min Rain = 0
KGHS 132310Z 06012G19KT 35/15 A2998 RMK A01 T03480151  RH  032%=      5-min Rain = 0
KGHS 132315Z 06015G21KT 35/15 A2997 RMK A01 T03470152  RH  033%=      5-min Rain = 0
KGHS 132320Z 06013G20KT 35/15 A2998 RMK A01 T03450153  RH  033%=      5-min Rain = 0
KGHS 132325Z 05013KT 34/15 A2998 RMK A01 T03430153  RH  034%=      5-min Rain = 0
KGHS 132330Z 05013KT 35/15 A2998 RMK A01 T03450153  RH  033%=      5-min Rain = 0
KGHS 132335Z 06014KT 35/15 A2998 RMK A01 T03470154  RH  033%=      5-min Rain = 0
KGHS 132340Z 07012KT 35/15 A2998 RMK A01 T03460152  RH  033%=      5-min Rain = 0
KGHS 132345Z 06013G18KT 35/15 A2998 RMK A01 T03450152  RH  033%=      5-min Rain = 0
KGHS 132350Z 07012KT 34/15 A2998 RMK A01 T03440152  RH  033%=      5-min Rain = 0
KGHS 132355Z 05012G18KT 34/15 A2998 RMK A01 T03440152  RH  033%=      5-min Rain = 0
KGHS 140000Z 05013G18KT 34/15 A2998 RMK A01 T03430153  RH  034%=      5-min Rain = 0
KGHS 140005Z 06012G17KT 34/15 A2998 RMK A01 T03430153  RH  034%=      5-min Rain = 0
KGHS 140010Z 06015G20KT 34/15 A2998 RMK A01 T03420153  RH  034%=      5-min Rain = 0
KGHS 140015Z 05013KT 34/15 A2999 RMK A01 T03410152  RH  034%=      5-min Rain = 0
KGHS 140020Z 07012KT 34/15 A2999 RMK A01 T03420152  RH  034%=      5-min Rain = 0
KGHS 140025Z 06014G19KT 34/15 A2999 RMK A01 T03410154  RH  034%=      5-min Rain = 0
KGHS 140030Z 06014KT 34/16 A2999 RMK A01 T03400156  RH  035%=      5-min Rain = 0
KGHS 140035Z 06013KT 34/16 A2999 RMK A01 T03390156  RH  035%=      5-min Rain = 0
KGHS 140040Z 07014KT 34/16 A2999 RMK A01 T03380155  RH  035%=      5-min Rain = 0
KGHS 140045Z 06011G17KT 34/16 A2999 RMK A01 T03370155  RH  035%=      5-min Rain = 0
KGHS 140050Z 08012KT 34/16 A30 RMK A01 T03370155  RH  035%=      5-min Rain = 0
KGHS 140055Z 06013KT 34/16 A30 RMK A01 T03350155  RH  036%=      5-min Rain = 0
KGHS 140100Z 07011G16KT 33/16 A30 RMK A01 T03340156  RH  036%=      5-min Rain = 0
KGHS 140105Z 07012KT 33/16 A30 RMK A01 T03320157  RH  037%=      5-min Rain = 0
KGHS 140110Z 06012G17KT 33/16 A30 RMK A01 T03310158  RH  037%=      5-min Rain = 0
KGHS 140115Z 07013KT 33/16 A30 RMK A01 T03290158  RH  037%=      5-min Rain = 0
KGHS 140120Z 07013KT 33/16 A30 RMK A01 T03280158  RH  038%=      5-min Rain = 0
KGHS 140125Z 07014G19KT 33/16 A30 RMK A01 T03270158  RH  038%=      5-min Rain = 0
KGHS 140130Z 06014KT 33/16 A30 RMK A01 T03250159  RH  039%=      5-min Rain = 0
KGHS 140135Z 07013KT 32/16 A3001 RMK A01 T03240160  RH  039%=      5-min Rain = 0
KGHS 140140Z 07014KT 32/16 A3001 RMK A01 T03220161  RH  040%=      5-min Rain = 0
KGHS 140145Z 06013KT 32/16 A3001 RMK A01 T03210162  RH  040%=      5-min Rain = 0
KGHS 140150Z 07013G18KT 32/16 A3002 RMK A01 T03190163  RH  041%=      5-min Rain = 0
KGHS 140155Z 07013G18KT 32/16 A3002 RMK A01 T03180164  RH  042%=      5-min Rain = 0
KGHS 140200Z 06012G18KT 32/16 A3003 RMK A01 T03170164  RH  042%=      5-min Rain = 0
KGHS 140205Z 06015G20KT 32/17 A3003 RMK A01 T03150165  RH  043%=      5-min Rain = 0
KGHS 140210Z 06013G18KT 31/17 A3003 RMK A01 T03140167  RH  043%=      5-min Rain = 0
KGHS 140215Z 06011KT 31/17 A3004 RMK A01 T03120167  RH  044%=      5-min Rain = 0
KGHS 140220Z 06013G18KT 31/17 A3004 RMK A01 T03110167  RH  044%=      5-min Rain = 0
KGHS 140225Z 06013KT 31/17 A3004 RMK A01 T03100168  RH  044%=      5-min Rain = 0
KGHS 140230Z 06013KT 31/17 A3004 RMK A01 T03090168  RH  045%=      5-min Rain = 0
KGHS 140235Z 06013KT 31/17 A3004 RMK A01 T03080168  RH  045%=      5-min Rain = 0
KGHS 140240Z 05013KT 31/17 A3004 RMK A01 T03070168  RH  045%=      5-min Rain = 0
KGHS 140245Z 05013KT 31/17 A3004 RMK A01 T03070168  RH  046%=      5-min Rain = 0
KGHS 140250Z 05014KT 31/17 A3004 RMK A01 T03060169  RH  046%=      5-min Rain = 0
KGHS 140255Z 05013KT 31/17 A3005 RMK A01 T03050169  RH  046%=      5-min Rain = 0
KGHS 140300Z 05011KT 30/17 A3005 RMK A01 T03040169  RH  047%=      5-min Rain = 0
KGHS 140305Z 05013KT 30/17 A3005 RMK A01 T03030169  RH  047%=      5-min Rain = 0
KGHS 140310Z 05013KT 30/17 A3006 RMK A01 T03030169  RH  047%=      5-min Rain = 0
KGHS 140315Z 06013KT 30/17 A3006 RMK A01 T03020170  RH  047%=      5-min Rain = 0
KGHS 140320Z 06014KT 30/17 A3006 RMK A01 T03010170  RH  048%=      5-min Rain = 0
KGHS 140325Z 06013G18KT 30/17 A3006 RMK A01 T03010170  RH  048%=      5-min Rain = 0
KGHS 140330Z 06013KT 30/17 A3007 RMK A01 T03000171  RH  048%=      5-min Rain = 0
KGHS 140335Z 07014G19KT 30/17 A3007 RMK A01 T03000171  RH  048%=      5-min Rain = 0
KGHS 140340Z 07013KT 30/17 A3007 RMK A01 T02990172  RH  049%=      5-min Rain = 0
KGHS 140345Z 07013KT 30/17 A3007 RMK A01 T02980172  RH  049%=      5-min Rain = 0
KGHS 140350Z 07013KT 30/17 A3007 RMK A01 T02970172  RH  050%=      5-min Rain = 0
KGHS 140355Z 07012KT 30/17 A3008 RMK A01 T02960173  RH  050%=      5-min Rain = 0
KGHS 140400Z 06011KT 29/17 A3008 RMK A01 T02940173  RH  051%=      5-min Rain = 0
KGHS 140405Z 06011G17KT 29/17 A3008 RMK A01 T02930173  RH  051%=      5-min Rain = 0
KGHS 140410Z 06011KT 29/17 A3008 RMK A01 T02930174  RH  051%=      5-min Rain = 0
KGHS 140415Z 06013KT 29/17 A3008 RMK A01 T02910174  RH  052%=      5-min Rain = 0
KGHS 140420Z 06011KT 29/17 A3008 RMK A01 T02900174  RH  052%=      5-min Rain = 0
KGHS 140425Z 06011G17KT 29/17 A3008 RMK A01 T02890174  RH  052%=      5-min Rain = 0
KGHS 140430Z 06011KT 29/17 A3008 RMK A01 T02880174  RH  053%=      5-min Rain = 0
KGHS 140435Z 06012KT 29/17 A3009 RMK A01 T02870174  RH  053%=      5-min Rain = 0
KGHS 140440Z 06012KT 29/17 A3009 RMK A01 T02860174  RH  053%=      5-min Rain = 0
KGHS 140445Z 06013KT 29/17 A3009 RMK A01 T02850174  RH  054%=      5-min Rain = 0
KGHS 140450Z 06011KT 28/17 A3009 RMK A01 T02840174  RH  054%=      5-min Rain = 0
KGHS 140455Z 06011KT 28/17 A3009 RMK A01 T02830174  RH  054%=      5-min Rain = 0

Page generated in 0.0093 seconds.